createdAt,value
2022-07-29T00:01:05.634Z,34.93
2022-07-29T00:03:32.662Z,34.86
2022-07-29T00:06:00.824Z,34.99
2022-07-29T00:08:28.068Z,34.71
2022-07-29T00:10:55.079Z,35.05
2022-07-29T00:13:32.108Z,34.97
2022-07-29T00:16:03.587Z,34.83
2022-07-29T00:18:32.920Z,34.82
2022-07-29T00:21:00.341Z,34.76
2022-07-29T00:23:27.380Z,34.92
2022-07-29T00:25:54.504Z,35.43
2022-07-29T00:28:21.493Z,34.81
2022-07-29T00:30:48.568Z,34.74
2022-07-29T00:33:15.649Z,35.01
2022-07-29T00:35:45.577Z,35.25
2022-07-29T00:38:15.523Z,35.32
2022-07-29T00:40:44.004Z,35.15
2022-07-29T00:43:14.093Z,35.31
2022-07-29T00:45:44.624Z,35.69
2022-07-29T00:48:11.851Z,35.23
2022-07-29T00:50:39.680Z,35.49
2022-07-29T00:53:12.940Z,35.25
2022-07-29T00:55:40.133Z,35.81
2022-07-29T00:58:08.106Z,35.82
2022-07-29T01:00:35.254Z,35.29
2022-07-29T01:03:02.434Z,36.24
2022-07-29T01:05:50.682Z,35.65
2022-07-29T01:08:21.227Z,35.85
2022-07-29T01:10:50.302Z,35.94
2022-07-29T01:13:18.728Z,35.48
2022-07-29T01:15:56.363Z,35.65
2022-07-29T01:18:40.569Z,36.04
2022-07-29T01:21:55.875Z,35.98
2022-07-29T01:24:51.495Z,36.25
2022-07-29T01:28:00.589Z,35.92
2022-07-29T01:30:30.845Z,35.79
2022-07-29T01:33:36.495Z,36.26
2022-07-29T01:36:17.578Z,36.58
2022-07-29T01:38:58.919Z,36.65
2022-07-29T01:41:30.579Z,36.65
2022-07-29T01:44:10.682Z,36.14
2022-07-29T01:46:45.586Z,36.67
2022-07-29T01:49:21.183Z,36.28
2022-07-29T01:51:55.606Z,36.66
2022-07-29T01:54:46.992Z,36.17
2022-07-29T01:57:21.030Z,36.32
2022-07-29T01:59:51.271Z,36.74
2022-07-29T02:02:21.812Z,36.50
2022-07-29T02:04:51.687Z,36.66
2022-07-29T02:07:22.920Z,37.00
2022-07-29T02:09:54.713Z,36.75
2022-07-29T02:12:25.084Z,36.60
2022-07-29T02:14:55.516Z,37.06
2022-07-29T02:17:50.038Z,37.02
2022-07-29T02:20:18.139Z,36.95
2022-07-29T02:22:48.232Z,36.65
2022-07-29T02:25:17.475Z,37.06
2022-07-29T02:27:46.572Z,36.67
2022-07-29T02:30:14.447Z,36.79
2022-07-29T02:32:44.494Z,36.77
2022-07-29T02:35:20.234Z,36.54
2022-07-29T02:38:11.464Z,36.84
2022-07-29T02:40:43.057Z,36.69
2022-07-29T02:43:12.061Z,37.03
2022-07-29T02:45:39.930Z,36.98
2022-07-29T02:48:16.139Z,37.17
2022-07-29T02:50:55.593Z,36.85
2022-07-29T02:53:27.699Z,36.87
2022-07-29T02:56:09.039Z,37.23
2022-07-29T02:58:49.929Z,37.16
2022-07-29T03:01:24.997Z,37.13
2022-07-29T03:03:55.084Z,37.08
2022-07-29T03:06:28.105Z,37.51
2022-07-29T03:09:09.138Z,37.26
2022-07-29T03:11:46.091Z,37.43
2022-07-29T03:14:21.519Z,37.19
2022-07-29T03:16:51.998Z,36.99
2022-07-29T03:19:21.414Z,37.77
2022-07-29T03:21:48.897Z,37.39
2022-07-29T03:24:35.304Z,37.18
2022-07-29T03:27:04.609Z,37.45
2022-07-29T03:29:33.021Z,37.37
2022-07-29T03:32:07.141Z,37.44
2022-07-29T03:34:35.493Z,37.25
2022-07-29T03:37:02.698Z,37.60
2022-07-29T03:39:39.241Z,38.02
2022-07-29T03:42:11.539Z,38.43
2022-07-29T03:44:44.041Z,38.53
2022-07-29T03:47:14.595Z,38.13
2022-07-29T03:49:43.590Z,39.26
2022-07-29T03:52:11.306Z,39.40
2022-07-29T03:54:38.541Z,39.50
2022-07-29T03:57:08.926Z,39.63
2022-07-29T03:59:37.077Z,39.96
2022-07-29T04:02:06.550Z,40.39
2022-07-29T04:04:37.286Z,40.29
2022-07-29T04:07:08.400Z,40.41
2022-07-29T04:09:35.588Z,40.37
2022-07-29T04:12:04.346Z,40.59
2022-07-29T04:14:35.915Z,40.77
2022-07-29T04:17:05.524Z,40.83
2022-07-29T04:19:33.521Z,40.84
2022-07-29T04:22:02.111Z,41.57
2022-07-29T04:24:29.733Z,41.53
2022-07-29T04:26:57.122Z,41.49
2022-07-29T04:29:24.332Z,41.68
2022-07-29T04:31:51.680Z,41.21
2022-07-29T04:34:19.829Z,41.43
2022-07-29T04:36:47.279Z,41.45
2022-07-29T04:39:18.042Z,41.96
2022-07-29T04:41:48.345Z,42.01
2022-07-29T04:44:15.822Z,41.67
2022-07-29T04:46:44.623Z,42.10
2022-07-29T04:49:11.975Z,42.28
2022-07-29T04:51:39.271Z,42.21
2022-07-29T04:54:07.262Z,42.51
2022-07-29T04:56:34.421Z,42.49
2022-07-29T04:59:01.682Z,42.87
2022-07-29T05:01:28.907Z,42.26
2022-07-29T05:04:00.321Z,42.27
2022-07-29T05:06:28.014Z,42.62
2022-07-29T05:08:55.214Z,42.33
2022-07-29T05:11:30.504Z,42.30
2022-07-29T05:13:58.022Z,42.77
2022-07-29T05:16:28.362Z,42.60
2022-07-29T05:18:55.540Z,42.88
2022-07-29T05:21:22.816Z,42.97
2022-07-29T05:23:50.074Z,43.01
2022-07-29T05:26:17.377Z,43.04
2022-07-29T05:28:44.608Z,43.05
2022-07-29T05:31:11.919Z,43.35
2022-07-29T05:33:39.205Z,43.47
2022-07-29T05:36:09.305Z,43.33
2022-07-29T05:38:37.523Z,43.53
2022-07-29T05:41:06.313Z,43.81
2022-07-29T05:43:34.208Z,43.81
2022-07-29T05:46:01.490Z,43.75
2022-07-29T05:48:28.931Z,43.90
2022-07-29T05:50:56.739Z,43.87
2022-07-29T05:53:23.999Z,44.24
2022-07-29T05:55:52.975Z,44.10
2022-07-29T05:58:20.641Z,43.97
2022-07-29T06:00:48.050Z,44.20
2022-07-29T06:03:15.394Z,44.53
2022-07-29T06:05:42.703Z,44.58
2022-07-29T06:08:09.893Z,44.56
2022-07-29T06:10:37.409Z,44.41
2022-07-29T06:13:04.665Z,44.51
2022-07-29T06:15:32.154Z,44.87
2022-07-29T06:18:01.283Z,44.41
2022-07-29T06:20:33.033Z,44.67
2022-07-29T06:23:01.225Z,44.67
2022-07-29T06:25:33.409Z,44.83
2022-07-29T06:28:00.618Z,44.96
2022-07-29T06:30:28.145Z,44.79
2022-07-29T06:32:56.007Z,45.11
2022-07-29T06:35:42.026Z,45.24
2022-07-29T06:38:30.153Z,45.15
2022-07-29T06:41:07.062Z,45.22
2022-07-29T06:43:42.692Z,45.90
2022-07-29T06:46:21.177Z,46.03
2022-07-29T06:48:49.153Z,45.65
2022-07-29T06:51:22.575Z,45.71
2022-07-29T06:54:00.305Z,45.97
2022-07-29T06:56:39.478Z,46.10
2022-07-29T06:59:12.814Z,45.84
2022-07-29T07:01:43.971Z,45.96
2022-07-29T07:04:12.989Z,46.25
2022-07-29T07:06:40.975Z,46.05
2022-07-29T07:09:08.398Z,46.09
2022-07-29T07:11:35.667Z,46.25
2022-07-29T07:14:04.461Z,46.08
2022-07-29T07:16:33.052Z,46.37
2022-07-29T07:19:01.122Z,46.45
2022-07-29T07:21:30.216Z,46.18
2022-07-29T07:23:58.628Z,46.71
2022-07-29T07:26:26.426Z,46.47
2022-07-29T07:28:53.722Z,46.39
2022-07-29T07:31:21.208Z,46.85
2022-07-29T07:33:48.516Z,46.62
2022-07-29T07:36:15.782Z,47.16
2022-07-29T07:38:42.970Z,46.87
2022-07-29T07:41:10.163Z,47.10
2022-07-29T07:43:37.453Z,46.93
2022-07-29T07:46:04.849Z,47.30
2022-07-29T07:48:32.065Z,47.37
2022-07-29T07:50:59.286Z,47.24
2022-07-29T07:53:26.447Z,47.37
2022-07-29T07:56:09.845Z,47.49
2022-07-29T07:58:39.879Z,47.09
2022-07-29T08:01:07.552Z,47.49
2022-07-29T08:03:35.264Z,47.44
2022-07-29T08:06:03.878Z,47.58
2022-07-29T08:08:31.177Z,47.38
2022-07-29T08:10:58.494Z,47.66
2022-07-29T08:13:29.357Z,47.69
2022-07-29T08:16:12.188Z,47.86
2022-07-29T08:18:42.236Z,47.49
2022-07-29T08:21:09.578Z,47.65
2022-07-29T08:23:46.484Z,47.86
2022-07-29T08:26:16.578Z,47.87
2022-07-29T08:28:47.164Z,47.99
2022-07-29T08:31:15.395Z,47.76
2022-07-29T08:33:43.257Z,47.55
2022-07-29T08:36:10.804Z,47.97
2022-07-29T08:38:38.104Z,47.64
2022-07-29T08:41:05.642Z,48.14
2022-07-29T08:43:33.276Z,48.02
2022-07-29T08:46:01.657Z,47.85
2022-07-29T08:48:32.558Z,47.95
2022-07-29T08:51:01.758Z,47.80
2022-07-29T08:53:31.500Z,47.72
2022-07-29T08:55:59.842Z,48.17
2022-07-29T08:58:32.331Z,48.00
2022-07-29T09:01:04.947Z,48.00
2022-07-29T09:03:38.388Z,48.07
2022-07-29T09:06:06.026Z,48.19
2022-07-29T09:08:34.283Z,48.42
2022-07-29T09:11:05.634Z,48.31
2022-07-29T09:13:32.975Z,48.25
2022-07-29T09:16:02.495Z,47.96
2022-07-29T09:18:46.931Z,48.21
2022-07-29T09:21:37.109Z,48.16
2022-07-29T09:24:12.039Z,48.48
2022-07-29T09:26:43.332Z,48.24
2022-07-29T09:29:23.413Z,48.35
2022-07-29T09:31:54.008Z,48.10
2022-07-29T09:34:32.390Z,48.32
2022-07-29T09:36:59.559Z,48.26
2022-07-29T09:39:35.281Z,48.27
2022-07-29T09:42:06.634Z,48.33
2022-07-29T09:44:51.060Z,48.51
2022-07-29T09:47:22.786Z,48.64
2022-07-29T09:50:00.416Z,48.36
2022-07-29T09:52:31.197Z,47.87
2022-07-29T09:55:17.852Z,48.24
2022-07-29T09:57:47.667Z,48.37
2022-07-29T10:00:21.125Z,48.00
2022-07-29T10:02:49.453Z,48.38
2022-07-29T10:05:26.495Z,48.36
2022-07-29T10:07:58.635Z,48.01
2022-07-29T10:10:31.170Z,48.16
2022-07-29T10:13:07.815Z,47.79
2022-07-29T10:15:44.819Z,47.44
2022-07-29T10:18:14.396Z,47.82
2022-07-29T10:20:42.700Z,47.59
2022-07-29T10:23:11.030Z,47.70
2022-07-29T10:25:38.269Z,47.28
2022-07-29T10:28:07.199Z,47.56
2022-07-29T10:30:35.188Z,47.19
2022-07-29T10:33:38.830Z,47.17
2022-07-29T10:36:16.767Z,47.51
2022-07-29T10:39:56.247Z,46.96
2022-07-29T10:42:34.075Z,47.15
2022-07-29T10:45:04.935Z,47.11
2022-07-29T10:47:32.625Z,47.05
2022-07-29T10:50:07.661Z,47.29
2022-07-29T10:53:00.374Z,46.32
2022-07-29T10:55:37.807Z,47.07
2022-07-29T10:58:18.007Z,46.92
2022-07-29T11:00:52.164Z,46.68
2022-07-29T11:03:53.579Z,46.47
2022-07-29T11:09:25.749Z,46.59
2022-07-29T11:12:38.727Z,46.01
2022-07-29T11:15:18.508Z,46.43
2022-07-29T11:18:15.080Z,45.93
2022-07-29T11:20:47.817Z,45.85
2022-07-29T11:23:33.957Z,45.61
2022-07-29T11:26:23.127Z,46.11
2022-07-29T11:29:04.679Z,45.85
2022-07-29T11:31:44.537Z,45.73
2022-07-29T11:34:34.856Z,46.20
2022-07-29T11:37:10.796Z,45.86
2022-07-29T11:39:47.151Z,45.91
2022-07-29T11:42:32.313Z,45.68
2022-07-29T11:45:41.441Z,45.97
2022-07-29T11:48:31.322Z,45.73
2022-07-29T11:51:00.977Z,45.70
2022-07-29T11:53:33.034Z,45.65
2022-07-29T11:56:02.449Z,45.41
2022-07-29T11:58:30.921Z,45.31
2022-07-29T12:01:04.550Z,45.53
2022-07-29T12:03:35.808Z,45.86
2022-07-29T12:06:13.716Z,45.42
2022-07-29T12:08:45.041Z,45.95
2022-07-29T12:11:22.606Z,45.48
2022-07-29T12:13:52.960Z,45.47
2022-07-29T12:16:25.584Z,45.02
2022-07-29T12:19:06.185Z,45.06
2022-07-29T12:21:53.656Z,45.42
2022-07-29T12:24:26.506Z,45.10
2022-07-29T12:27:00.278Z,45.13
2022-07-29T12:29:34.831Z,44.88
2022-07-29T12:32:14.211Z,44.77
2022-07-29T12:34:42.615Z,45.35
2022-07-29T12:37:11.353Z,45.25
2022-07-29T12:39:39.111Z,44.71
2022-07-29T12:42:18.368Z,44.79
2022-07-29T12:44:51.448Z,43.90
2022-07-29T12:47:20.733Z,44.06
2022-07-29T12:49:49.532Z,44.04
2022-07-29T12:52:31.013Z,44.62
2022-07-29T12:54:59.301Z,43.96
2022-07-29T12:57:27.608Z,43.60
2022-07-29T13:00:05.456Z,43.31
2022-07-29T13:02:32.955Z,43.62
2022-07-29T13:05:02.488Z,43.40
2022-07-29T13:07:54.094Z,43.28
2022-07-29T13:10:24.463Z,43.35
2022-07-29T13:13:09.161Z,43.36
2022-07-29T13:15:39.232Z,43.00
2022-07-29T13:18:28.077Z,43.69
2022-07-29T13:20:55.742Z,43.07
2022-07-29T13:23:23.264Z,42.97
2022-07-29T13:25:50.654Z,42.71
2022-07-29T13:28:18.521Z,42.60
2022-07-29T13:30:45.884Z,43.24
2022-07-29T13:33:13.175Z,42.90
2022-07-29T13:35:40.398Z,42.90
2022-07-29T13:38:11.112Z,42.97
2022-07-29T13:40:38.398Z,43.25
2022-07-29T13:43:05.716Z,43.13
2022-07-29T13:45:32.838Z,42.72
2022-07-29T13:48:00.107Z,42.06
2022-07-29T13:50:27.312Z,42.47
2022-07-29T13:52:54.561Z,42.34
2022-07-29T13:55:22.225Z,42.56
2022-07-29T13:57:49.472Z,42.08
2022-07-29T14:00:17.467Z,41.86
2022-07-29T14:02:44.709Z,42.05
2022-07-29T14:05:14.847Z,41.88
2022-07-29T14:07:42.037Z,42.41
2022-07-29T14:10:10.255Z,42.33
2022-07-29T14:12:37.993Z,42.43
2022-07-29T14:15:06.025Z,41.26
2022-07-29T14:17:33.186Z,41.85
2022-07-29T14:20:00.504Z,41.49
2022-07-29T14:22:27.604Z,41.63
2022-07-29T14:24:54.929Z,41.23
2022-07-29T14:27:37.630Z,41.48
2022-07-29T14:30:08.072Z,40.95
2022-07-29T14:32:35.402Z,41.34
2022-07-29T14:35:02.670Z,40.43
2022-07-29T14:37:39.903Z,40.11
2022-07-29T14:40:10.297Z,40.50
2022-07-29T14:42:38.746Z,40.69
2022-07-29T14:45:09.076Z,40.41
2022-07-29T14:47:36.475Z,39.92
2022-07-29T14:50:06.035Z,40.39
2022-07-29T14:52:33.437Z,39.74
2022-07-29T14:55:00.925Z,40.50
2022-07-29T14:57:28.325Z,40.38
2022-07-29T14:59:55.734Z,39.95
2022-07-29T15:02:28.135Z,39.19
2022-07-29T15:05:03.241Z,40.06
2022-07-29T15:07:30.474Z,39.31
2022-07-29T15:10:00.918Z,39.46
2022-07-29T15:12:28.816Z,39.29
2022-07-29T15:14:56.157Z,38.83
2022-07-29T15:17:23.562Z,39.25
2022-07-29T15:19:50.864Z,39.09
2022-07-29T15:22:19.335Z,39.13
2022-07-29T15:24:46.573Z,38.65
2022-07-29T15:27:15.176Z,39.30
2022-07-29T15:29:43.994Z,39.32
2022-07-29T15:32:12.463Z,39.02
2022-07-29T15:34:40.288Z,39.03
2022-07-29T15:37:07.695Z,38.87
2022-07-29T15:39:34.890Z,38.65
2022-07-29T15:42:03.675Z,38.77
2022-07-29T15:44:30.851Z,38.92
2022-07-29T15:47:04.058Z,38.85
2022-07-29T15:49:47.038Z,38.46
2022-07-29T15:52:26.052Z,38.09
2022-07-29T15:54:56.057Z,37.80
2022-07-29T15:57:24.871Z,37.99
2022-07-29T15:59:52.511Z,37.84
2022-07-29T16:02:19.825Z,38.15
2022-07-29T16:04:47.417Z,37.99
2022-07-29T16:07:23.516Z,37.93
2022-07-29T16:09:53.513Z,37.62
2022-07-29T16:12:21.363Z,38.39
2022-07-29T16:14:51.061Z,38.02
2022-07-29T16:17:18.917Z,38.29
2022-07-29T16:19:46.839Z,38.13
2022-07-29T16:22:14.621Z,37.60
2022-07-29T16:24:42.254Z,37.82
2022-07-29T16:27:09.787Z,37.55
2022-07-29T16:29:37.498Z,38.21
2022-07-29T16:32:06.403Z,37.74
2022-07-29T16:34:33.924Z,37.48
2022-07-29T16:37:01.362Z,37.71
2022-07-29T16:39:28.619Z,37.68
2022-07-29T16:41:59.879Z,37.91
2022-07-29T16:44:28.739Z,38.32
2022-07-29T16:46:58.881Z,38.08
2022-07-29T16:49:27.785Z,37.96
2022-07-29T16:51:55.134Z,37.24
2022-07-29T16:54:22.399Z,37.66
2022-07-29T16:56:49.728Z,37.30
2022-07-29T16:59:17.011Z,37.77
2022-07-29T17:01:44.449Z,37.71
2022-07-29T17:04:16.903Z,37.51
2022-07-29T17:06:43.972Z,37.42
2022-07-29T17:09:15.127Z,38.48
2022-07-29T17:11:53.722Z,37.89
2022-07-29T17:14:27.160Z,38.10
2022-07-29T17:16:58.995Z,38.15
2022-07-29T17:19:29.443Z,38.47
2022-07-29T17:22:04.742Z,38.56
2022-07-29T17:24:36.779Z,38.68
2022-07-29T17:27:05.614Z,38.84
2022-07-29T17:29:32.662Z,38.55
2022-07-29T17:32:00.246Z,38.90
2022-07-29T17:34:27.639Z,38.55
2022-07-29T17:36:54.721Z,38.90
2022-07-29T17:39:21.866Z,38.05
2022-07-29T17:41:49.300Z,38.03
2022-07-29T17:44:16.379Z,38.81
2022-07-29T17:46:43.523Z,38.25
2022-07-29T17:49:11.437Z,38.27
2022-07-29T17:51:38.794Z,38.84
2022-07-29T17:54:05.980Z,38.06
2022-07-29T17:56:33.076Z,38.81
2022-07-29T17:59:01.683Z,38.59
2022-07-29T18:01:28.884Z,39.05
2022-07-29T18:03:59.996Z,38.93
2022-07-29T18:06:27.304Z,38.28
2022-07-29T18:08:55.374Z,38.89
2022-07-29T18:11:23.306Z,38.49
2022-07-29T18:13:50.453Z,38.34
2022-07-29T18:16:17.673Z,38.14
2022-07-29T18:18:45.445Z,38.91
2022-07-29T18:21:12.815Z,38.12
2022-07-29T18:23:40.054Z,38.04
2022-07-29T18:26:07.235Z,38.74
2022-07-29T18:28:34.404Z,38.51
2022-07-29T18:31:02.504Z,38.23
2022-07-29T18:33:29.717Z,38.62
2022-07-29T18:36:10.624Z,38.29
2022-07-29T18:38:40.906Z,38.28
2022-07-29T18:41:08.065Z,38.43
2022-07-29T18:43:35.273Z,38.28
2022-07-29T18:46:02.678Z,38.81
2022-07-29T18:48:29.699Z,38.31
2022-07-29T18:50:56.793Z,39.00
2022-07-29T18:53:23.826Z,38.97
2022-07-29T18:55:50.973Z,38.63
2022-07-29T18:58:18.028Z,38.60
2022-07-29T19:00:45.682Z,38.49
2022-07-29T19:03:12.903Z,38.82
2022-07-29T19:05:40.076Z,39.33
2022-07-29T19:08:07.354Z,38.52
2022-07-29T19:10:34.539Z,39.05
2022-07-29T19:13:01.547Z,39.18
2022-07-29T19:15:28.749Z,39.35
2022-07-29T19:18:00.678Z,38.57
2022-07-29T19:20:28.512Z,39.07
2022-07-29T19:22:55.927Z,39.42
2022-07-29T19:25:23.372Z,38.72
2022-07-29T19:27:50.622Z,39.12
2022-07-29T19:30:17.661Z,38.89
2022-07-29T19:32:44.886Z,38.81
2022-07-29T19:35:24.833Z,39.32
2022-07-29T19:37:52.639Z,38.69
2022-07-29T19:40:20.030Z,39.02
2022-07-29T19:42:49.830Z,39.16
2022-07-29T19:45:17.243Z,39.17
2022-07-29T19:47:44.356Z,39.32
2022-07-29T19:50:11.556Z,39.56
2022-07-29T19:52:38.768Z,38.67
2022-07-29T19:55:07.797Z,39.02
2022-07-29T19:57:40.538Z,38.82
2022-07-29T20:00:11.029Z,38.67
2022-07-29T20:02:40.409Z,38.68
2022-07-29T20:05:09.118Z,39.50
2022-07-29T20:07:37.340Z,39.03
2022-07-29T20:10:06.477Z,38.91
2022-07-29T20:12:33.759Z,39.28
2022-07-29T20:15:00.925Z,38.88
2022-07-29T20:17:29.230Z,38.85
2022-07-29T20:19:57.169Z,39.01
2022-07-29T20:22:24.216Z,39.00
2022-07-29T20:24:51.408Z,39.67
2022-07-29T20:27:19.050Z,38.82
2022-07-29T20:29:46.106Z,39.77
2022-07-29T20:32:13.279Z,39.48
2022-07-29T20:34:43.544Z,39.06
2022-07-29T20:37:11.469Z,38.87
2022-07-29T20:39:38.668Z,39.11
2022-07-29T20:42:06.638Z,39.80
2022-07-29T20:44:33.711Z,39.11
2022-07-29T20:47:01.536Z,39.59
2022-07-29T20:49:28.867Z,39.78
2022-07-29T20:51:56.204Z,39.25
2022-07-29T20:54:23.298Z,39.59
2022-07-29T20:56:50.673Z,39.43
2022-07-29T20:59:17.803Z,38.89
2022-07-29T21:01:45.165Z,39.73
2022-07-29T21:04:12.417Z,39.25
2022-07-29T21:06:39.480Z,39.18
2022-07-29T21:09:06.963Z,39.38
2022-07-29T21:11:44.542Z,39.57
2022-07-29T21:14:32.518Z,39.33
2022-07-29T21:17:00.266Z,39.54
2022-07-29T21:19:27.529Z,39.67
2022-07-29T21:21:54.650Z,39.49
2022-07-29T21:24:21.645Z,39.94
2022-07-29T21:27:10.911Z,39.82
2022-07-29T21:34:29.700Z,39.84
2022-07-29T21:36:56.874Z,39.46
2022-07-29T21:39:23.907Z,39.78
2022-07-29T21:41:51.085Z,40.09
2022-07-29T21:44:19.542Z,39.90
2022-07-29T21:46:46.609Z,40.12
2022-07-29T21:49:13.754Z,39.55
2022-07-29T21:51:40.960Z,40.28
2022-07-29T21:54:08.044Z,39.76
2022-07-29T21:56:35.657Z,40.44
2022-07-29T21:59:03.554Z,39.63
2022-07-29T22:01:39.019Z,39.95
2022-07-29T22:04:06.879Z,39.64
2022-07-29T22:06:34.738Z,40.23
2022-07-29T22:09:01.876Z,40.02
2022-07-29T22:11:29.275Z,40.01
2022-07-29T22:13:56.778Z,40.39
2022-07-29T22:16:23.912Z,40.06
2022-07-29T22:18:51.095Z,40.35
2022-07-29T22:21:18.197Z,40.31
2022-07-29T22:23:45.447Z,40.12
2022-07-29T22:26:12.565Z,40.60
2022-07-29T22:28:39.758Z,40.21
2022-07-29T22:31:07.983Z,40.55
2022-07-29T22:33:35.134Z,40.53
2022-07-29T22:36:02.303Z,40.63
2022-07-29T22:38:29.293Z,40.24
2022-07-29T22:40:58.754Z,40.21
2022-07-29T22:43:28.728Z,40.40
2022-07-29T22:45:55.911Z,40.79
2022-07-29T22:48:22.964Z,40.40
2022-07-29T22:50:50.055Z,40.64
2022-07-29T22:53:17.537Z,40.81
2022-07-29T22:55:45.880Z,40.36
2022-07-29T22:58:13.226Z,40.78
2022-07-29T23:00:40.431Z,41.02
2022-07-29T23:03:07.551Z,40.86
2022-07-29T23:05:34.623Z,40.88
2022-07-29T23:08:01.789Z,40.77
2022-07-29T23:10:29.108Z,41.17
2022-07-29T23:12:56.259Z,40.83
2022-07-29T23:15:24.801Z,40.82
2022-07-29T23:17:51.928Z,40.82
2022-07-29T23:20:19.247Z,41.26
2022-07-29T23:22:46.445Z,41.23
2022-07-29T23:25:13.526Z,41.37
2022-07-29T23:27:41.547Z,41.14
2022-07-29T23:30:09.360Z,41.55
2022-07-29T23:32:36.542Z,41.09
2022-07-29T23:35:05.694Z,41.52
2022-07-29T23:37:33.466Z,41.21
2022-07-29T23:40:00.557Z,41.49
2022-07-29T23:42:27.578Z,41.29
2022-07-29T23:44:54.720Z,41.63
2022-07-29T23:47:21.858Z,40.99
2022-07-29T23:49:50.189Z,41.58
2022-07-29T23:52:17.783Z,41.48
2022-07-29T23:54:44.869Z,41.36
2022-07-29T23:57:12.030Z,41.48
2022-07-29T23:59:39.144Z,41.63
